LPS weather

La Ponderosa Airport
Puerto Wilches, Santander Department, Colombia

Public forecast

Using degrees Celsius for public forecast. Weather courtesy of forecast.io.

Closest aviation weather report (METAR) to La Ponderosa Airport

Report is more than 2 hours old.

Closest report is YariguĂ­es Airport, 15.0 nm (27.8 km) S. Retrieved 2019/12/07 23:00 UTC (4 hours ago):

SKEJ 072300Z VRB02KT 9999 FEW020 BKN200 27/25 A2981

Closest aviation forecast (TAF) to La Ponderosa Airport

Closest forecast is Palonegro Airport, 39.0 nm (72.2 km) ESE. Retrieved 2019-12-08 00:45 UTC (2 hours ago):

TAF TAF SKBG 072230Z 0800/0824 33004KT 9999 SCT012 BKN100 BECMG 0802/0804 VRB02KT SCT017CB TEMPO 0819/0821 33007KT TX28/0819Z TN19/0811Z